createdAt,value
2023-03-18T00:01:05.247Z,0.00
2023-03-18T00:06:05.213Z,0.00
2023-03-18T00:11:05.170Z,0.00
2023-03-18T00:16:05.264Z,0.00
2023-03-18T00:21:05.111Z,0.00
2023-03-18T00:26:04.999Z,0.00
2023-03-18T00:31:05.191Z,0.00
2023-03-18T00:36:05.061Z,0.00
2023-03-18T00:41:04.918Z,0.00
2023-03-18T00:46:04.790Z,0.00
2023-03-18T00:51:04.707Z,0.00
2023-03-18T00:56:04.659Z,0.00
2023-03-18T01:01:04.658Z,0.00
2023-03-18T01:06:04.575Z,0.00
2023-03-18T01:11:04.579Z,0.00
2023-03-18T01:16:04.504Z,0.00
2023-03-18T01:21:04.446Z,0.00
2023-03-18T01:26:04.413Z,0.00
2023-03-18T01:31:04.310Z,0.00
2023-03-18T01:36:04.283Z,0.00
2023-03-18T01:41:04.155Z,0.00
2023-03-18T01:46:04.158Z,0.00
2023-03-18T01:51:04.071Z,0.00
2023-03-18T01:56:04.022Z,0.00
2023-03-18T02:01:03.960Z,0.00
2023-03-18T02:06:03.898Z,0.00
2023-03-18T02:11:03.846Z,0.00
2023-03-18T02:16:03.867Z,0.00
2023-03-18T02:21:03.955Z,0.00
2023-03-18T02:26:03.702Z,0.00
2023-03-18T02:31:03.635Z,0.00
2023-03-18T02:36:03.654Z,0.00
2023-03-18T02:41:03.565Z,0.00
2023-03-18T02:46:03.458Z,0.00
2023-03-18T02:51:03.424Z,0.00
2023-03-18T02:56:03.359Z,0.00
2023-03-18T03:01:03.433Z,0.00
2023-03-18T03:06:03.271Z,0.00
2023-03-18T03:11:03.221Z,0.00
2023-03-18T03:16:03.188Z,0.00
2023-03-18T03:21:03.110Z,0.00
2023-03-18T03:26:03.087Z,0.00
2023-03-18T03:31:03.062Z,0.00
2023-03-18T03:36:03.058Z,0.00
2023-03-18T03:41:02.858Z,0.00
2023-03-18T03:46:02.841Z,0.00
2023-03-18T03:51:02.758Z,0.00
2023-03-18T03:56:02.746Z,0.00
2023-03-18T04:01:02.625Z,0.00
2023-03-18T04:06:02.595Z,0.00
2023-03-18T04:11:02.574Z,0.00
2023-03-18T04:16:02.538Z,0.00
2023-03-18T04:21:02.423Z,0.00
2023-03-18T04:26:02.407Z,0.00
2023-03-18T04:31:02.398Z,0.00
2023-03-18T04:36:02.353Z,0.00
2023-03-18T04:41:02.243Z,0.00
2023-03-18T04:46:02.171Z,0.00
2023-03-18T04:51:02.093Z,0.00
2023-03-18T04:56:02.109Z,0.00
2023-03-18T05:01:02.080Z,0.00
2023-03-18T05:06:01.968Z,0.00
2023-03-18T05:11:02.916Z,0.00
2023-03-18T05:16:01.923Z,0.00
2023-03-18T05:21:01.805Z,0.00
2023-03-18T05:26:01.725Z,0.00
2023-03-18T05:31:01.670Z,0.00
2023-03-18T05:36:01.640Z,0.00
2023-03-18T05:41:01.560Z,0.00
2023-03-18T05:46:01.569Z,5.62
2023-03-18T05:51:01.438Z,5.62
2023-03-18T05:56:01.416Z,16.88
2023-03-18T06:01:01.328Z,16.88
2023-03-18T06:06:01.360Z,16.88
2023-03-18T06:11:01.269Z,28.12
2023-03-18T06:16:01.189Z,39.38
2023-03-18T06:21:01.116Z,45.00
2023-03-18T06:26:01.103Z,39.38
2023-03-18T06:31:01.081Z,67.50
2023-03-18T06:36:01.186Z,73.12
2023-03-18T06:41:01.002Z,140.62
2023-03-18T06:46:01.960Z,157.50
2023-03-18T06:51:00.916Z,208.12
2023-03-18T06:56:00.831Z,253.12
2023-03-18T07:01:00.800Z,264.38
2023-03-18T07:06:00.707Z,303.75
2023-03-18T07:11:00.618Z,421.88
2023-03-18T07:16:00.597Z,438.75
2023-03-18T07:21:00.594Z,337.50
2023-03-18T07:26:00.410Z,410.62
2023-03-18T07:31:00.414Z,371.25
2023-03-18T07:36:01.407Z,382.50
2023-03-18T07:41:00.239Z,461.25
2023-03-18T07:46:00.225Z,708.75
2023-03-18T07:51:00.240Z,1125.00
2023-03-18T07:56:00.141Z,1237.50
2023-03-18T08:01:00.101Z,1231.88
2023-03-18T08:05:59.965Z,1310.62
2023-03-18T08:10:59.953Z,1305.00
2023-03-18T08:15:59.917Z,1305.00
2023-03-18T08:21:00.671Z,1372.50
2023-03-18T08:25:59.758Z,1468.12
2023-03-18T08:31:00.824Z,1530.00
2023-03-18T08:35:59.699Z,787.50
2023-03-18T08:40:59.678Z,759.38
2023-03-18T08:45:59.657Z,753.75
2023-03-18T08:50:59.508Z,669.38
2023-03-18T08:56:01.336Z,1535.62
2023-03-18T09:00:59.395Z,765.00
2023-03-18T09:05:59.494Z,1541.25
2023-03-18T09:10:59.338Z,1912.50
2023-03-18T09:15:59.193Z,945.00
2023-03-18T09:20:59.209Z,1530.00
2023-03-18T09:25:59.103Z,1389.38
2023-03-18T09:30:59.097Z,1586.25
2023-03-18T09:35:59.154Z,2064.38
2023-03-18T09:40:59.024Z,1929.38
2023-03-18T09:45:58.998Z,1766.25
2023-03-18T09:50:58.871Z,1434.38
2023-03-18T09:56:00.801Z,1423.12
2023-03-18T10:00:58.809Z,1867.50
2023-03-18T10:05:58.677Z,1648.12
2023-03-18T10:10:58.712Z,1653.75
2023-03-18T10:15:58.608Z,1951.88
2023-03-18T10:20:58.544Z,1980.00
2023-03-18T10:25:58.471Z,1040.62
2023-03-18T10:30:58.479Z,1670.62
2023-03-18T10:35:59.340Z,1850.62
2023-03-18T10:40:58.379Z,1968.75
2023-03-18T10:45:58.261Z,1788.75
2023-03-18T10:50:58.252Z,1665.00
2023-03-18T10:55:58.145Z,2463.75
2023-03-18T11:00:58.087Z,2379.38
2023-03-18T11:05:58.062Z,2227.50
2023-03-18T11:10:57.980Z,2306.25
2023-03-18T11:15:58.057Z,2137.50
2023-03-18T11:20:57.947Z,2075.62
2023-03-18T11:25:57.840Z,2036.25
2023-03-18T11:30:57.848Z,2036.25
2023-03-18T11:35:58.828Z,1918.12
2023-03-18T11:40:57.754Z,2205.00
2023-03-18T11:45:57.663Z,2632.50
2023-03-18T11:50:57.648Z,1608.75
2023-03-18T11:55:57.519Z,770.62
2023-03-18T12:00:57.445Z,945.00
2023-03-18T12:05:57.493Z,2058.75
2023-03-18T12:10:57.453Z,1282.50
2023-03-18T12:15:57.320Z,2086.88
2023-03-18T12:20:57.318Z,2103.75
2023-03-18T12:25:57.306Z,2840.62
2023-03-18T12:30:57.134Z,1012.50
2023-03-18T12:35:57.172Z,1181.25
2023-03-18T12:40:57.064Z,2075.62
2023-03-18T12:45:57.071Z,2013.75
2023-03-18T12:50:57.007Z,2154.38
2023-03-18T12:55:56.928Z,1800.00
2023-03-18T13:00:56.972Z,1400.62
2023-03-18T13:05:56.828Z,1389.38
2023-03-18T13:10:56.739Z,1755.00
2023-03-18T13:15:56.648Z,1687.50
2023-03-18T13:20:56.727Z,2514.38
2023-03-18T13:25:56.617Z,2115.00
2023-03-18T13:30:57.638Z,2261.25
2023-03-18T13:35:56.461Z,1524.38
2023-03-18T13:40:56.476Z,832.50
2023-03-18T13:45:56.454Z,1130.62
2023-03-18T13:50:56.292Z,1265.62
2023-03-18T13:55:56.267Z,995.62
2023-03-18T14:00:56.236Z,765.00
2023-03-18T14:05:56.138Z,528.75
2023-03-18T14:10:56.132Z,725.62
2023-03-18T14:15:56.049Z,748.12
2023-03-18T14:20:55.978Z,511.88
2023-03-18T14:25:55.940Z,213.75
2023-03-18T14:30:55.929Z,185.62
2023-03-18T14:35:56.864Z,405.00
2023-03-18T14:40:55.906Z,545.62
2023-03-18T14:45:55.722Z,365.62
2023-03-18T14:50:55.669Z,365.62
2023-03-18T14:55:57.147Z,776.25
2023-03-18T15:00:55.541Z,646.88
2023-03-18T15:05:55.570Z,433.12
2023-03-18T15:10:56.493Z,478.12
2023-03-18T15:15:55.484Z,495.00
2023-03-18T15:20:55.362Z,281.25
2023-03-18T15:25:55.313Z,348.75
2023-03-18T15:30:55.207Z,731.25
2023-03-18T15:35:55.186Z,511.88
2023-03-18T15:40:55.153Z,365.62
2023-03-18T15:45:55.105Z,281.25
2023-03-18T15:50:56.065Z,298.12
2023-03-18T15:55:55.080Z,281.25
2023-03-18T16:00:54.943Z,236.25
2023-03-18T16:05:54.848Z,219.38
2023-03-18T16:10:54.852Z,213.75
2023-03-18T16:15:54.798Z,208.12
2023-03-18T16:20:54.755Z,196.88
2023-03-18T16:25:54.697Z,185.62
2023-03-18T16:30:54.594Z,174.38
2023-03-18T16:35:54.686Z,157.50
2023-03-18T16:40:55.024Z,146.25
2023-03-18T16:45:54.495Z,135.00
2023-03-18T16:50:56.521Z,135.00
2023-03-18T16:55:54.303Z,123.75
2023-03-18T17:00:54.287Z,112.50
2023-03-18T17:05:54.204Z,95.62
2023-03-18T17:10:54.132Z,73.12
2023-03-18T17:15:54.089Z,61.88
2023-03-18T17:20:54.178Z,45.00
2023-03-18T17:25:53.993Z,39.38
2023-03-18T17:30:55.018Z,28.12
2023-03-18T17:35:53.976Z,16.88
2023-03-18T17:40:54.016Z,11.25
2023-03-18T17:45:53.792Z,5.62
2023-03-18T17:50:53.770Z,0.00
2023-03-18T17:55:53.817Z,0.00
2023-03-18T18:00:55.692Z,0.00
2023-03-18T18:05:53.563Z,0.00
2023-03-18T18:10:53.502Z,0.00
2023-03-18T18:15:53.500Z,0.00
2023-03-18T18:20:57.636Z,0.00
2023-03-18T18:25:53.327Z,0.00
2023-03-18T18:30:53.260Z,0.00
2023-03-18T18:35:53.236Z,0.00
2023-03-18T18:40:53.170Z,0.00
2023-03-18T18:45:53.218Z,0.00
2023-03-18T18:50:53.166Z,0.00
2023-03-18T18:55:52.999Z,0.00
2023-03-18T19:00:53.069Z,0.00
2023-03-18T19:05:53.000Z,0.00
2023-03-18T19:10:52.832Z,0.00
2023-03-18T19:15:52.820Z,0.00
2023-03-18T19:20:52.774Z,0.00
2023-03-18T19:25:52.660Z,0.00
2023-03-18T19:30:52.609Z,0.00
2023-03-18T19:35:52.627Z,0.00
2023-03-18T19:40:52.529Z,0.00
2023-03-18T19:45:52.546Z,0.00
2023-03-18T19:50:52.455Z,0.00
2023-03-18T19:55:52.391Z,0.00
2023-03-18T20:00:53.348Z,0.00
2023-03-18T20:05:52.250Z,0.00
2023-03-18T20:10:52.155Z,0.00
2023-03-18T20:15:52.127Z,0.00
2023-03-18T20:20:52.101Z,0.00
2023-03-18T20:25:52.039Z,0.00
2023-03-18T20:30:51.972Z,0.00
2023-03-18T20:35:51.972Z,0.00
2023-03-18T20:40:51.852Z,0.00
2023-03-18T20:45:51.851Z,0.00
2023-03-18T20:50:51.706Z,0.00
2023-03-18T20:55:55.019Z,0.00
2023-03-18T21:00:51.736Z,0.00
2023-03-18T21:05:51.544Z,0.00
2023-03-18T21:10:51.531Z,0.00
2023-03-18T21:15:51.457Z,0.00
2023-03-18T21:20:51.486Z,0.00
2023-03-18T21:25:51.366Z,0.00
2023-03-18T21:30:51.346Z,0.00
2023-03-18T21:35:51.299Z,0.00
2023-03-18T21:40:51.174Z,0.00
2023-03-18T21:45:51.195Z,0.00
2023-03-18T21:50:51.095Z,0.00
2023-03-18T21:55:51.010Z,0.00
2023-03-18T22:00:51.066Z,0.00
2023-03-18T22:05:51.035Z,0.00
2023-03-18T22:10:50.848Z,0.00
2023-03-18T22:15:50.828Z,0.00
2023-03-18T22:20:50.755Z,0.00
2023-03-18T22:25:50.692Z,0.00
2023-03-18T22:30:50.779Z,0.00
2023-03-18T22:35:50.607Z,0.00
2023-03-18T22:40:50.522Z,0.00
2023-03-18T22:45:50.511Z,0.00
2023-03-18T22:50:51.594Z,0.00
2023-03-18T22:55:50.414Z,0.00
2023-03-18T23:00:50.278Z,0.00
2023-03-18T23:05:50.264Z,0.00
2023-03-18T23:10:50.183Z,0.00
2023-03-18T23:15:50.193Z,0.00
2023-03-18T23:20:50.235Z,0.00
2023-03-18T23:25:50.042Z,0.00
2023-03-18T23:30:49.988Z,0.00
2023-03-18T23:35:49.936Z,0.00
2023-03-18T23:40:49.919Z,0.00
2023-03-18T23:45:49.908Z,0.00
2023-03-18T23:50:49.733Z,0.00
2023-03-18T23:55:50.226Z,0.00
